Time;durP1;ratioP1;P1;durP2;ratioP2;P2;SDS_P1;SDS_P2;PMS_P1;PMS_P2;Temp;Humidity;BMP_temperature;BMP_pressure;BME280_temperature;BME280_humidity;BME280_pressure;Samples;Min_cycle;Max_cycle;Signal;HPM_P1;HPM_P2
2023/09/24 00:02:12;;;;;;;0.10;0.10;;;;;;;18.46;75.33;100071.22;7359838;19;20007;-62
2023/09/24 00:04:39;;;;;;;0.10;0.10;;;;;;;18.39;75.11;100062.84;7361787;19;20042;-62
2023/09/24 00:07:05;;;;;;;0.00;0.00;;;;;;;18.34;73.65;100075.50;7363436;19;20010;-62
2023/09/24 00:09:31;;;;;;;0.10;0.10;;;;;;;18.41;75.08;100082.94;7365557;19;20027;-62
2023/09/24 00:11:57;;;;;;;0.10;0.10;;;;;;;18.37;74.01;100085.88;7364563;19;20014;-62
2023/09/24 00:14:23;;;;;;;0.10;0.10;;;;;;;18.39;75.05;100089.25;7365919;19;20019;-62
2023/09/24 00:16:48;;;;;;;0.10;0.10;;;;;;;18.36;75.24;100085.03;7370463;19;20029;-62
2023/09/24 00:19:14;;;;;;;0.10;0.10;;;;;;;18.36;74.67;100092.13;7360132;19;20007;-62
2023/09/24 00:21:39;;;;;;;0.10;0.10;;;;;;;18.28;75.73;100091.75;7363648;19;20014;-62
2023/09/24 00:24:06;;;;;;;0.10;0.10;;;;;;;18.32;75.54;100096.75;7358957;19;20043;-62
2023/09/24 00:26:32;;;;;;;0.10;0.10;;;;;;;18.21;74.02;100075.47;7356376;19;20018;-62
2023/09/24 00:28:57;;;;;;;0.10;0.10;;;;;;;18.28;75.45;100095.25;7363830;19;20496;-62
2023/09/24 00:31:23;;;;;;;0.10;0.10;;;;;;;18.26;74.95;100099.78;7362514;19;20582;-62
2023/09/24 00:33:51;;;;;;;0.10;0.10;;;;;;;18.25;75.80;100098.09;7363572;19;20701;-62
2023/09/24 00:36:17;;;;;;;0.10;0.10;;;;;;;18.22;75.68;100103.56;7363788;19;20010;-62
2023/09/24 00:38:42;;;;;;;0.10;0.10;;;;;;;18.23;75.00;100105.25;7365466;19;20405;-62
2023/09/24 00:41:08;;;;;;;0.10;0.10;;;;;;;18.21;75.77;100088.66;7353317;19;19994;-62
2023/09/24 00:43:34;;;;;;;0.10;0.10;;;;;;;18.23;74.66;100105.25;7358295;19;20010;-62
2023/09/24 00:46:07;;;;;;;0.10;0.10;;;;;;;18.18;75.94;100096.78;7363660;19;20925;-62
2023/09/24 00:48:33;;;;;;;0.10;0.10;;;;;;;18.18;76.03;100094.13;7359667;19;19994;-62
2023/09/24 00:51:01;;;;;;;0.10;0.10;;;;;;;18.18;76.08;100090.66;7360268;19;20014;-61
2023/09/24 00:53:29;;;;;;;0.10;0.10;;;;;;;18.15;76.37;100097.00;7357372;19;20002;-62
2023/09/24 00:55:58;;;;;;;;;;;;;;;18.17;73.12;100097.75;7361449;19;20411;-62
2023/09/24 00:58:25;;;;;;;0.10;0.10;;;;;;;18.11;75.79;100098.97;7357509;19;20299;-62
2023/09/24 01:00:55;;;;;;;0.10;0.10;;;;;;;18.10;75.32;100089.38;7362089;19;20546;-62
2023/09/24 01:03:24;;;;;;;0.10;0.10;;;;;;;18.08;76.28;100091.22;7360931;19;20086;-62
2023/09/24 01:05:50;;;;;;;0.10;0.10;;;;;;;18.04;75.94;100084.44;7359253;19;20031;-62
2023/09/24 01:08:21;;;;;;;0.10;0.10;;;;;;;18.04;75.75;100099.44;7360469;19;20011;-62
2023/09/24 01:10:47;;;;;;;0.10;0.10;;;;;;;18.03;76.31;100092.47;7368518;19;20007;-61
2023/09/24 01:13:15;;;;;;;0.10;0.10;;;;;;;18.00;76.34;100096.19;7366287;19;20022;-62
2023/09/24 01:15:44;;;;;;;0.10;0.10;;;;;;;18.00;75.98;100095.31;7367102;19;20029;-62
2023/09/24 01:18:10;;;;;;;0.10;0.10;;;;;;;17.99;76.39;100107.66;7365915;19;20082;-62
2023/09/24 01:20:36;;;;;;;0.10;0.10;;;;;;;17.97;76.70;100106.06;7361679;19;20115;-62
2023/09/24 01:23:03;;;;;;;0.10;0.10;;;;;;;17.96;76.86;100113.16;7362202;19;20014;-62
2023/09/24 01:25:33;;;;;;;0.10;0.10;;;;;;;17.96;76.30;100107.88;7354654;19;20041;-62
2023/09/24 01:27:59;;;;;;;0.10;0.10;;;;;;;17.92;76.68;100097.59;7372387;19;20367;-62
2023/09/24 01:30:24;;;;;;;0.10;0.10;;;;;;;17.93;76.27;100112.50;7361956;19;20010;-62
2023/09/24 01:32:50;;;;;;;0.10;0.10;;;;;;;17.92;76.43;100124.00;7365105;19;20007;-62
2023/09/24 01:35:17;;;;;;;0.10;0.10;;;;;;;17.91;76.60;100117.03;7365289;19;20724;-62
2023/09/24 01:37:42;;;;;;;0.10;0.10;;;;;;;17.88;76.79;100105.69;7367834;19;21175;-62
2023/09/24 01:40:21;;;;;;;0.10;0.10;;;;;;;17.87;76.66;100111.09;7363600;19;20002;-62
2023/09/24 01:42:47;;;;;;;0.10;0.10;;;;;;;17.82;76.78;100114.00;7364055;19;20082;-62
2023/09/24 01:45:15;;;;;;;0.10;0.10;;;;;;;17.84;76.64;100113.91;7365856;19;20102;-63
2023/09/24 01:47:40;;;;;;;0.10;0.10;;;;;;;17.73;77.40;100106.66;7368594;19;20526;-61
2023/09/24 01:50:07;;;;;;;0.10;0.10;;;;;;;17.80;77.41;100117.69;7365537;19;20021;-62
2023/09/24 01:52:34;;;;;;;0.10;0.10;;;;;;;17.80;77.12;100117.69;7367520;19;20017;-62
2023/09/24 01:55:00;;;;;;;0.10;0.10;;;;;;;17.71;76.81;100107.66;7369240;19;22050;-62
2023/09/24 01:57:25;;;;;;;0.10;0.10;;;;;;;17.75;76.80;100117.13;7372653;19;20101;-62
2023/09/24 01:59:51;;;;;;;0.10;0.10;;;;;;;17.76;76.64;100124.97;7366013;19;20465;-62
2023/09/24 02:02:16;;;;;;;0.10;0.10;;;;;;;17.75;75.96;100120.63;7368128;19;20010;-62
2023/09/24 02:04:41;;;;;;;0.10;0.10;;;;;;;17.71;76.92;100115.59;7370884;19;20013;-62
2023/09/24 02:07:08;;;;;;;0.10;0.10;;;;;;;17.70;76.53;100117.38;7365923;19;20017;-62
2023/09/24 02:09:35;;;;;;;0.10;0.10;;;;;;;17.70;76.93;100117.38;7369207;19;20014;-62
2023/09/24 02:12:01;;;;;;;0.10;0.10;;;;;;;17.66;76.82;100115.88;7360916;19;20018;-62
2023/09/24 02:14:26;;;;;;;0.10;0.10;;;;;;;17.54;76.53;100098.16;7363688;19;20589;-63
2023/09/24 02:16:51;;;;;;;0.10;0.10;;;;;;;17.68;77.04;100124.53;7364384;19;20090;-61
2023/09/24 02:19:17;;;;;;;0.10;0.10;;;;;;;17.52;76.80;100086.81;7365278;19;20454;-62
2023/09/24 02:21:43;;;;;;;0.10;0.10;;;;;;;17.64;76.83;100107.22;7365511;19;20019;-62
2023/09/24 02:24:09;;;;;;;0.10;0.10;;;;;;;17.47;76.67;100083.63;7363314;19;20013;-62
2023/09/24 02:26:34;;;;;;;0.10;0.10;;;;;;;17.61;77.12;100121.44;7365329;19;20026;-62
2023/09/24 02:29:00;;;;;;;0.10;0.10;;;;;;;17.62;76.40;100119.63;7363962;19;20376;-62
2023/09/24 02:31:26;;;;;;;0.10;0.10;;;;;;;17.63;75.67;100131.88;7366870;19;20643;-62
2023/09/24 02:33:52;;;;;;;0.10;0.10;;;;;;;17.61;76.70;100133.78;7360402;19;20006;-62
2023/09/24 02:36:17;;;;;;;0.10;0.10;;;;;;;17.60;76.35;100142.66;7364850;19;20018;-62
2023/09/24 02:38:43;;;;;;;0.10;0.10;;;;;;;17.59;76.80;100127.75;7359899;19;20010;-62
2023/09/24 02:41:11;;;;;;;0.10;0.10;;;;;;;17.59;76.10;100120.69;7365701;19;20113;-63
2023/09/24 02:43:37;;;;;;;0.10;0.10;;;;;;;17.48;76.36;100111.69;7364480;19;20015;-62
2023/09/24 02:46:03;;;;;;;0.10;0.10;;;;;;;17.56;77.01;100120.03;7361290;19;20011;-62
2023/09/24 02:48:29;;;;;;;0.10;0.10;;;;;;;17.54;76.22;100121.91;7366541;19;20018;-62
2023/09/24 02:50:54;;;;;;;0.10;0.10;;;;;;;17.53;75.97;100114.91;7356954;19;20031;-62
2023/09/24 02:53:20;;;;;;;0.10;0.10;;;;;;;17.52;76.54;100118.50;7365204;19;20017;-62
2023/09/24 02:55:46;;;;;;;0.10;0.10;;;;;;;17.37;76.60;100100.00;7363121;19;20036;-62
2023/09/24 02:58:13;;;;;;;0.10;0.10;;;;;;;17.46;76.59;100125.00;7366690;19;20357;-62
2023/09/24 03:00:42;;;;;;;0.10;0.10;;;;;;;17.41;76.56;100116.50;7362007;19;20021;-62
2023/09/24 03:03:09;;;;;;;0.10;0.10;;;;;;;17.42;76.56;100122.63;7364692;19;20038;-62
2023/09/24 03:05:36;;;;;;;0.10;0.10;;;;;;;17.42;76.61;100122.63;7354364;19;20876;-62
2023/09/24 03:08:02;;;;;;;0.00;0.00;;;;;;;17.38;77.10;100125.44;7366114;19;20039;-62
2023/09/24 03:10:35;;;;;;;0.10;0.10;;;;;;;17.29;76.80;100117.25;7369787;19;20015;-62
2023/09/24 03:13:04;;;;;;;0.10;0.10;;;;;;;17.30;77.43;100132.16;7367723;19;20043;-62
2023/09/24 03:15:29;;;;;;;0.10;0.10;;;;;;;17.07;76.89;100088.66;7368419;19;20369;-62
2023/09/24 03:17:55;;;;;;;0.10;0.10;;;;;;;17.32;76.82;100139.03;7378495;19;20638;-62
2023/09/24 03:20:21;;;;;;;0.10;0.10;;;;;;;17.32;76.98;100136.38;7374299;19;20010;-62
2023/09/24 03:22:54;;;;;;;0.10;0.10;;;;;;;17.33;76.71;100139.88;7378584;19;20377;-62
2023/09/24 03:25:27;;;;;;;0.10;0.10;;;;;;;17.33;76.33;100126.66;7367042;19;20471;-63
2023/09/24 03:27:58;;;;;;;0.10;0.10;;;;;;;17.29;77.18;100128.66;7369616;19;20017;-62
2023/09/24 03:30:24;;;;;;;0.10;0.10;;;;;;;17.26;77.48;100128.00;7341160;19;20002;-62
2023/09/24 03:32:51;;;;;;;0.10;0.10;;;;;;;17.24;77.59;100128.09;7370916;19;20425;-61
2023/09/24 03:35:21;;;;;;;0.10;0.10;;;;;;;17.21;77.17;100135.31;7366296;19;20483;-62
2023/09/24 03:37:46;;;;;;;0.10;0.10;;;;;;;17.24;77.42;100141.28;7371166;19;20481;-62
2023/09/24 03:40:18;;;;;;;0.00;0.00;;;;;;;17.25;77.97;100127.13;7367215;19;20014;-62
2023/09/24 03:42:44;;;;;;;0.10;0.10;;;;;;;17.21;78.32;100130.91;7360224;19;20018;-62
2023/09/24 03:45:14;;;;;;;0.10;0.10;;;;;;;17.25;78.01;100131.56;7366662;19;20122;-62
2023/09/24 03:47:40;;;;;;;0.10;0.10;;;;;;;17.15;78.32;100128.63;7368777;19;20010;-62
2023/09/24 03:50:13;;;;;;;0.10;0.10;;;;;;;17.09;78.29;100131.63;7359167;19;20014;-62
2023/09/24 03:52:40;;;;;;;0.10;0.10;;;;;;;17.21;78.12;100154.66;7367043;19;20011;-62
2023/09/24 03:55:06;;;;;;;0.10;0.10;;;;;;;17.11;78.28;100140.28;7364596;19;20078;-62
2023/09/24 03:57:31;;;;;;;0.10;0.10;;;;;;;17.20;78.31;100154.75;7362605;19;20073;-62
2023/09/24 03:59:57;;;;;;;0.10;0.10;;;;;;;17.19;78.74;100151.25;7366201;19;20014;-62
2023/09/24 04:02:24;;;;;;;0.10;0.10;;;;;;;17.19;78.63;100153.91;7368087;19;20002;-62
2023/09/24 04:04:50;;;;;;;0.00;0.00;;;;;;;17.18;79.09;100152.19;7364024;19;20038;-62
2023/09/24 04:07:19;;;;;;;0.10;0.10;;;;;;;17.20;78.62;100160.03;7366095;19;20003;-62
2023/09/24 04:09:44;;;;;;;0.10;0.10;;;;;;;17.16;78.73;100154.06;7365861;19;20018;-62
2023/09/24 04:12:10;;;;;;;0.00;0.00;;;;;;;17.11;78.75;100141.13;7365015;19;20014;-62
2023/09/24 04:14:36;;;;;;;0.10;0.10;;;;;;;17.14;78.90;100150.69;7364855;19;20113;-62
2023/09/24 04:17:02;;;;;;;0.10;0.10;;;;;;;17.11;79.04;100156.97;7335047;19;20014;-62
2023/09/24 04:19:31;;;;;;;0.10;0.10;;;;;;;17.12;78.60;100156.03;7362989;19;20015;-62
2023/09/24 04:21:56;;;;;;;0.10;0.10;;;;;;;17.11;79.13;100161.41;7364656;19;20006;-62
2023/09/24 04:24:21;;;;;;;0.10;0.10;;;;;;;17.09;78.91;100160.66;7366475;19;20014;-62
2023/09/24 04:26:47;;;;;;;0.10;0.10;;;;;;;17.06;78.81;100158.19;7360963;19;20521;-61
2023/09/24 04:29:14;;;;;;;0.10;0.10;;;;;;;17.07;78.88;100159.88;7367007;19;20011;-64
2023/09/24 04:31:39;;;;;;;0.15;0.15;;;;;;;17.05;78.82;100156.50;7361942;19;20017;-62
2023/09/24 04:34:05;;;;;;;0.05;0.05;;;;;;;17.05;78.67;100161.75;7369556;19;20011;-61
2023/09/24 04:36:30;;;;;;;0.10;0.10;;;;;;;17.02;78.87;100162.78;7367258;19;20010;-62
2023/09/24 04:38:56;;;;;;;0.10;0.10;;;;;;;17.01;78.45;100165.50;7365793;19;20012;-61
2023/09/24 04:41:21;;;;;;;0.10;0.10;;;;;;;17.01;78.53;100147.03;7365837;19;20003;-61
2023/09/24 04:43:47;;;;;;;0.10;0.10;;;;;;;16.93;77.76;100141.34;7366175;19;20377;-61
2023/09/24 04:46:14;;;;;;;0.10;0.10;;;;;;;16.99;78.10;100152.41;7356432;19;20729;-61
2023/09/24 04:48:39;;;;;;;0.10;0.10;;;;;;;16.98;78.12;100145.44;7365438;19;20037;-62
2023/09/24 04:51:05;;;;;;;0.10;0.10;;;;;;;16.91;78.06;100132.69;7362727;19;20081;-62
2023/09/24 04:53:30;;;;;;;0.10;0.10;;;;;;;16.97;77.99;100146.38;7362605;19;20022;-61
2023/09/24 04:55:57;;;;;;;0.10;0.10;;;;;;;16.94;77.65;100140.44;7366222;19;20039;-61
2023/09/24 04:58:23;;;;;;;0.08;0.08;;;;;;;16.98;77.62;100134.03;7355820;19;20017;-62
2023/09/24 05:00:48;;;;;;;0.10;0.10;;;;;;;16.99;77.22;100135.75;7363813;19;20007;-61
2023/09/24 05:03:14;;;;;;;0.10;0.10;;;;;;;17.00;77.20;100140.94;7360322;19;20581;-61
2023/09/24 05:05:42;;;;;;;0.10;0.10;;;;;;;17.01;76.78;100139.97;7363344;19;20011;-62
2023/09/24 05:08:11;;;;;;;0.10;0.10;;;;;;;16.99;77.02;100146.31;7362809;19;20014;-62
2023/09/24 05:10:40;;;;;;;0.10;0.10;;;;;;;16.95;77.40;100131.59;7357987;19;20082;-62
2023/09/24 05:13:06;;;;;;;0.10;0.10;;;;;;;16.98;77.57;100139.28;7359796;19;20759;-62
2023/09/24 05:15:31;;;;;;;0.10;0.10;;;;;;;16.98;77.31;100139.28;7363420;19;20009;-61
2023/09/24 05:17:57;;;;;;;0.10;0.10;;;;;;;16.98;76.97;100147.22;7363187;19;20078;-61
2023/09/24 05:20:22;;;;;;;0.00;0.00;;;;;;;16.97;77.29;100145.53;7362392;19;20006;-61
2023/09/24 05:22:48;;;;;;;0.10;0.10;;;;;;;16.89;77.25;100139.84;7370075;19;20007;-61
2023/09/24 05:25:14;;;;;;;0.10;0.10;;;;;;;16.94;77.17;100145.72;7365131;19;20494;-61
2023/09/24 05:27:39;;;;;;;0.10;0.10;;;;;;;16.93;76.80;100151.91;7352891;19;20369;-61
2023/09/24 05:30:07;;;;;;;0.10;0.10;;;;;;;16.92;76.92;100150.22;7364359;19;20002;-62
2023/09/24 05:32:34;;;;;;;0.10;0.10;;;;;;;16.89;77.06;100147.78;7360107;19;20024;-61
2023/09/24 05:34:59;;;;;;;0.10;0.10;;;;;;;16.86;76.58;100141.72;7364206;19;20486;-61
2023/09/24 05:37:25;;;;;;;0.10;0.10;;;;;;;16.88;76.66;100140.78;7360877;19;20086;-61
2023/09/24 05:39:50;;;;;;;0.10;0.10;;;;;;;16.86;77.13;100148.78;7362037;19;20467;-62
2023/09/24 05:42:16;;;;;;;0.10;0.10;;;;;;;16.74;77.17;100131.03;7370708;19;20015;-61
2023/09/24 05:44:43;;;;;;;0.10;0.10;;;;;;;16.81;77.55;100143.78;7335991;19;20015;-61
2023/09/24 05:47:08;;;;;;;0.10;0.10;;;;;;;16.71;77.76;100126.78;7364653;19;20014;-61
2023/09/24 05:49:34;;;;;;;0.10;0.10;;;;;;;16.67;77.67;100121.72;7361658;19;20035;-61
2023/09/24 05:51:59;;;;;;;0.10;0.10;;;;;;;16.78;77.81;100137.84;7364672;19;21083;-61
2023/09/24 05:54:25;;;;;;;0.10;0.10;;;;;;;16.78;78.14;100138.69;7363253;19;20002;-61
2023/09/24 05:56:50;;;;;;;0.10;0.10;;;;;;;16.76;78.10;100135.28;7360369;19;20785;-61
2023/09/24 05:59:19;;;;;;;0.10;0.10;;;;;;;16.73;78.13;100130.19;7357911;19;20006;-61
2023/09/24 06:01:44;;;;;;;0.10;0.10;;;;;;;16.74;78.35;100139.78;7364445;19;20718;-61
2023/09/24 06:04:10;;;;;;;0.10;0.10;;;;;;;16.71;78.24;100147.88;7370349;19;20031;-61
2023/09/24 06:06:35;;;;;;;0.10;0.10;;;;;;;16.69;78.18;100152.34;7364693;19;20010;-62
2023/09/24 06:09:02;;;;;;;0.00;0.00;;;;;;;16.67;78.13;100154.22;7363038;19;20007;-61
2023/09/24 06:11:27;;;;;;;0.10;0.10;;;;;;;16.47;78.29;100123.69;7353917;19;20022;-61
2023/09/24 06:13:53;;;;;;;0.10;0.10;;;;;;;16.61;78.86;100152.78;7363918;19;20021;-62
2023/09/24 06:16:18;;;;;;;0.17;0.17;;;;;;;16.59;78.59;100153.81;7369892;19;20888;-61
2023/09/24 06:18:44;;;;;;;0.10;0.10;;;;;;;16.34;78.63;100122.72;7364629;19;20518;-61
2023/09/24 06:21:15;;;;;;;0.10;0.10;;;;;;;16.55;78.78;100162.81;7368391;19;19998;-61
2023/09/24 06:23:40;;;;;;;0.10;0.10;;;;;;;16.49;78.64;100152.63;7370667;19;20037;-62
2023/09/24 06:26:05;;;;;;;0.10;0.10;;;;;;;16.45;79.04;100151.94;7362757;19;20817;-60
2023/09/24 06:28:31;;;;;;;0.10;0.10;;;;;;;16.43;79.25;100150.34;7368959;19;20010;-62
2023/09/24 06:31:05;;;;;;;0.10;0.10;;;;;;;16.42;78.73;100152.09;7362440;19;20022;-61
2023/09/24 06:33:30;;;;;;;0.10;0.10;;;;;;;16.36;79.09;100141.91;7371491;19;20018;-61
2023/09/24 06:35:56;;;;;;;0.10;0.10;;;;;;;16.32;79.36;100135.09;7358995;19;20026;-62
2023/09/24 06:38:22;;;;;;;0.10;0.10;;;;;;;16.28;79.24;100134.44;7352695;19;20014;-61
2023/09/24 06:40:56;;;;;;;0.10;0.10;;;;;;;16.24;78.79;100126.78;7369048;19;20002;-61
2023/09/24 06:43:21;;;;;;;0.10;0.10;;;;;;;16.15;79.34;100107.06;7367812;19;20035;-62
2023/09/24 06:45:46;;;;;;;0.10;0.10;;;;;;;16.22;79.33;100123.38;7367693;19;20006;-62
2023/09/24 06:48:12;;;;;;;0.10;0.10;;;;;;;16.19;79.21;100118.28;7355507;19;20014;-61
2023/09/24 06:50:37;;;;;;;0.10;0.10;;;;;;;16.16;79.33;100118.44;7367398;19;20050;-61
2023/09/24 06:53:03;;;;;;;0.10;0.10;;;;;;;16.15;79.37;100117.59;7363096;19;20014;-61
2023/09/24 06:55:28;;;;;;;0.10;0.10;;;;;;;16.14;79.23;100115.91;7369696;19;20006;-61
2023/09/24 06:57:54;;;;;;;0.10;0.10;;;;;;;16.10;79.19;100114.38;7358067;19;20422;-61
2023/09/24 07:00:19;;;;;;;0.10;0.10;;;;;;;16.12;78.48;100107.25;7365216;19;20042;-61
2023/09/24 07:02:44;;;;;;;0.10;0.10;;;;;;;16.12;79.24;100109.00;7362210;19;20695;-61
2023/09/24 07:05:10;;;;;;;0.10;0.10;;;;;;;16.12;78.97;100094.09;7363069;19;20358;-61
2023/09/24 07:07:36;;;;;;;0.10;0.10;;;;;;;16.12;78.65;100099.34;7362106;19;20023;-62
2023/09/24 07:10:02;;;;;;;0.00;0.00;;;;;;;15.79;78.76;100039.69;7366668;19;20010;-61
2023/09/24 07:12:27;;;;;;;0.10;0.10;;;;;;;16.16;78.65;100092.94;7365044;19;20030;-61
2023/09/24 07:14:53;;;;;;;0.10;0.10;;;;;;;16.04;78.29;100067.31;7374695;19;20762;-61
2023/09/24 07:17:18;;;;;;;0.10;0.10;;;;;;;16.23;78.55;100098.75;7363313;19;19995;-62
2023/09/24 07:19:45;;;;;;;0.10;0.10;;;;;;;16.27;78.59;100094.97;7366857;19;20030;-61
2023/09/24 07:22:11;;;;;;;0.10;0.10;;;;;;;16.32;78.32;100100.84;7364245;19;20070;-61
2023/09/24 07:24:36;;;;;;;0.10;0.10;;;;;;;16.41;78.03;100110.03;7375513;19;20037;-61
2023/09/24 07:27:03;;;;;;;0.10;0.10;;;;;;;16.47;78.62;100107.88;7376115;19;20018;-61
2023/09/24 07:29:30;;;;;;;0.10;0.10;;;;;;;16.56;78.15;100112.66;7366397;19;20051;-61
2023/09/24 07:31:56;;;;;;;0.00;0.00;;;;;;;16.59;78.38;100106.38;7372075;19;20289;-61
2023/09/24 07:34:22;;;;;;;0.10;0.10;;;;;;;16.63;78.10;100102.63;7367723;19;20003;-61
2023/09/24 07:36:47;;;;;;;0.10;0.10;;;;;;;16.79;78.32;100106.09;7359983;19;20027;-61
2023/09/24 07:39:13;;;;;;;0.10;0.10;;;;;;;16.86;78.30;100104.78;7362986;19;20018;-61
2023/09/24 07:41:38;;;;;;;0.10;0.10;;;;;;;16.95;78.17;100105.22;7363607;19;20013;-61
2023/09/24 07:44:04;;;;;;;0.10;0.10;;;;;;;17.02;78.00;100094.19;7366877;19;20503;-61
2023/09/24 07:46:29;;;;;;;0.10;0.10;;;;;;;17.07;77.62;100096.56;7365715;19;20013;-60
2023/09/24 07:48:55;;;;;;;0.10;0.10;;;;;;;17.15;77.87;100083.78;7365372;19;20003;-61
2023/09/24 07:51:22;;;;;;;0.10;0.10;;;;;;;17.11;77.68;100063.78;7364694;19;20017;-61
2023/09/24 07:53:47;;;;;;;0.07;0.07;;;;;;;17.31;77.45;100068.72;7361362;19;20002;-61
2023/09/24 07:56:13;;;;;;;0.10;0.10;;;;;;;17.30;77.39;100051.19;7365544;19;20399;-60
2023/09/24 07:58:40;;;;;;;0.10;0.10;;;;;;;17.45;77.13;100064.41;7369392;19;20003;-62
2023/09/24 08:01:11;;;;;;;0.10;0.10;;;;;;;17.49;77.00;100063.28;7364476;19;20117;-60
2023/09/24 08:03:37;;;;;;;0.10;0.10;;;;;;;17.52;77.18;100070.97;7367286;19;20010;-61
2023/09/24 08:06:04;;;;;;;0.10;0.10;;;;;;;17.55;77.00;100076.09;7359246;19;20005;-60
2023/09/24 08:08:30;;;;;;;0.10;0.10;;;;;;;17.54;76.74;100061.19;7367757;19;20046;-61
2023/09/24 08:10:57;;;;;;;0.10;0.10;;;;;;;17.61;76.94;100059.84;7365651;19;20006;-62
2023/09/24 08:13:23;;;;;;;0.10;0.10;;;;;;;17.64;76.80;100049.13;7365635;19;20010;-61
2023/09/24 08:15:48;;;;;;;0.10;0.10;;;;;;;17.57;76.75;100058.34;7370378;19;20826;-61
2023/09/24 08:18:15;;;;;;;0.10;0.10;;;;;;;17.72;76.60;100072.38;7362776;19;20028;-61
2023/09/24 08:20:41;;;;;;;0.10;0.10;;;;;;;17.74;76.63;100059.97;7366063;19;20022;-61
2023/09/24 08:23:07;;;;;;;0.10;0.10;;;;;;;17.75;76.66;100046.69;7362475;19;20022;-62
2023/09/24 08:25:33;;;;;;;0.10;0.10;;;;;;;17.78;76.47;100046.47;7364090;19;20558;-61
2023/09/24 08:27:58;;;;;;;0.10;0.10;;;;;;;17.79;76.67;100042.03;7363096;19;20029;-61
2023/09/24 08:30:27;;;;;;;0.10;0.10;;;;;;;17.81;76.37;100038.38;7350929;19;19999;-61
2023/09/24 08:32:53;;;;;;;0.10;0.10;;;;;;;17.83;76.75;100036.47;7358480;19;20011;-60
2023/09/24 08:35:18;;;;;;;0.10;0.10;;;;;;;17.85;76.49;100018.75;7357452;19;20014;-61
2023/09/24 08:37:44;;;;;;;0.10;0.10;;;;;;;17.89;76.74;100020.25;7365084;19;20654;-61
2023/09/24 08:40:11;;;;;;;0.10;0.10;;;;;;;17.77;76.63;99991.97;7359402;19;20010;-61
2023/09/24 08:42:37;;;;;;;0.10;0.10;;;;;;;17.95;76.65;100005.81;7354691;19;21258;-61
2023/09/24 08:45:14;;;;;;;0.10;0.10;;;;;;;18.02;76.33;99991.22;7359437;19;20471;-61
2023/09/24 08:47:41;;;;;;;0.10;0.10;;;;;;;18.02;76.73;99990.38;7362556;19;20014;-61
2023/09/24 08:50:07;;;;;;;0.10;0.10;;;;;;;18.04;76.64;99978.75;7361041;19;20014;-61
2023/09/24 08:52:36;;;;;;;0.10;0.10;;;;;;;18.09;76.48;99970.53;7361219;19;20035;-60
2023/09/24 08:55:05;;;;;;;0.10;0.10;;;;;;;18.10;76.52;99965.19;7361390;19;20023;-61
2023/09/24 08:57:31;;;;;;;0.10;0.10;;;;;;;18.13;76.29;99956.19;7360890;19;20434;-61
2023/09/24 08:59:56;;;;;;;0.10;0.10;;;;;;;18.13;76.65;99929.75;7350126;19;20010;-61
2023/09/24 09:02:21;;;;;;;0.10;0.10;;;;;;;18.17;76.63;99928.63;7361952;19;20031;-61
2023/09/24 09:04:48;;;;;;;0.10;0.10;;;;;;;18.20;76.72;99931.06;7368148;19;20483;-61
2023/09/24 09:07:13;;;;;;;0.10;0.10;;;;;;;18.21;76.78;99932.75;7363586;19;20498;-61
2023/09/24 09:09:39;;;;;;;0.10;0.10;;;;;;;18.23;76.93;99936.13;7358940;19;20026;-61
2023/09/24 09:12:04;;;;;;;0.10;0.10;;;;;;;18.26;76.68;99946.50;7357059;19;20104;-61
2023/09/24 09:14:37;;;;;;;0.10;0.10;;;;;;;18.32;76.87;99951.38;7361647;19;20051;-61
2023/09/24 09:17:03;;;;;;;0.10;0.10;;;;;;;18.33;76.81;99950.41;7362099;19;20430;-61
2023/09/24 09:19:47;;;;;;;0.03;0.03;;;;;;;18.45;76.70;99961.13;7360971;19;20019;-61
2023/09/24 09:22:23;;;;;;;0.10;0.10;;;;;;;18.49;77.06;99957.31;7357631;19;20580;-61
2023/09/24 09:25:09;;;;;;;0.10;0.10;;;;;;;18.59;77.11;99947.81;7359166;19;20026;-61
2023/09/24 09:27:43;;;;;;;0.20;0.20;;;;;;;18.65;77.06;99944.75;7360952;19;20453;-62
2023/09/24 09:30:13;;;;;;;0.10;0.10;;;;;;;18.73;76.95;99939.81;7354781;19;20729;-60
2023/09/24 09:32:38;;;;;;;0.10;0.10;;;;;;;18.77;76.40;99949.25;7352575;19;20039;-61
2023/09/24 09:35:05;;;;;;;0.10;0.10;;;;;;;18.79;76.74;99944.69;7363967;19;20010;-61
2023/09/24 09:37:31;;;;;;;0.10;0.10;;;;;;;18.93;76.45;99936.66;7365638;19;20010;-61
2023/09/24 09:39:56;;;;;;;0.10;0.10;;;;;;;19.02;76.17;99944.91;7364063;19;20034;-61
2023/09/24 09:42:25;;;;;;;0.10;0.10;;;;;;;19.14;76.08;99957.28;7371831;19;20022;-61
2023/09/24 09:44:52;;;;;;;0.10;0.10;;;;;;;19.17;75.96;99942.03;7358494;19;20030;-61
2023/09/24 09:47:19;;;;;;;0.10;0.10;;;;;;;19.19;76.02;99931.31;7363735;19;20014;-61
2023/09/24 09:49:56;;;;;;;0.10;0.10;;;;;;;19.33;75.57;99939.16;7368350;19;20018;-61
2023/09/24 09:52:31;;;;;;;0.10;0.10;;;;;;;19.40;75.71;99929.78;7371641;19;20078;-60
2023/09/24 09:55:01;;;;;;;0.10;0.10;;;;;;;19.35;75.55;99908.09;7370941;19;20026;-61
2023/09/24 09:57:30;;;;;;;0.10;0.10;;;;;;;19.51;75.37;99930.81;7370362;19;20031;-61
2023/09/24 09:59:56;;;;;;;0.10;0.10;;;;;;;19.52;74.94;99932.53;7364282;19;20483;-61
2023/09/24 10:02:22;;;;;;;0.07;0.07;;;;;;;19.55;74.81;99933.16;7371602;19;20010;-61
2023/09/24 10:04:48;;;;;;;0.00;0.00;;;;;;;19.54;74.53;99930.63;7361211;19;20495;-61
2023/09/24 10:07:15;;;;;;;0.10;0.10;;;;;;;19.57;74.10;99930.41;7376397;19;20050;-61
2023/09/24 10:09:40;;;;;;;0.10;0.10;;;;;;;19.60;74.12;99925.75;7367399;19;20011;-61
2023/09/24 10:12:07;;;;;;;0.10;0.10;;;;;;;19.55;74.55;99911.13;7364265;19;20361;-61
2023/09/24 10:14:36;;;;;;;0.10;0.10;;;;;;;19.65;74.40;99920.13;7364544;19;20050;-60
2023/09/24 10:17:23;;;;;;;0.10;0.10;;;;;;;19.69;74.47;99918.94;7358046;19;20435;-61
2023/09/24 10:20:08;;;;;;;0.10;0.10;;;;;;;19.70;73.93;99910.88;7365853;19;20010;-61
2023/09/24 10:22:37;;;;;;;0.10;0.10;;;;;;;19.62;74.14;99893.88;7365463;19;20011;-60
2023/09/24 10:25:32;;;;;;;0.10;0.10;;;;;;;19.73;74.05;99903.69;7364061;19;20018;-60
2023/09/24 10:28:06;;;;;;;0.20;0.20;;;;;;;19.73;74.38;99893.09;7374071;19;20356;-61
2023/09/24 10:31:01;;;;;;;0.10;0.10;;;;;;;19.74;73.98;99869.13;7375427;19;20011;-61
2023/09/24 10:34:03;;;;;;;0.10;0.10;;;;;;;19.76;73.86;99867.19;7370945;19;20011;-60
2023/09/24 10:36:33;;;;;;;0.10;0.10;;;;;;;19.74;73.81;99890.31;7353588;19;20383;-61
2023/09/24 10:39:13;;;;;;;0.10;0.10;;;;;;;19.75;74.22;99876.09;7366671;19;20014;-60
2023/09/24 10:42:10;;;;;;;0.10;0.10;;;;;;;19.75;73.96;99870.81;7365352;19;20024;-61
2023/09/24 10:44:39;;;;;;;0.10;0.10;;;;;;;19.72;74.22;99875.47;7360263;19;20109;-61
2023/09/24 10:47:27;;;;;;;0.10;0.10;;;;;;;19.77;73.93;99873.31;7366274;19;20010;-61
2023/09/24 10:50:25;;;;;;;0.10;0.10;;;;;;;19.76;74.07;99877.78;7362511;19;20078;-61
2023/09/24 10:52:59;;;;;;;0.10;0.10;;;;;;;19.75;74.37;99878.75;7362928;19;20018;-61
2023/09/24 10:55:30;;;;;;;0.10;0.10;;;;;;;19.74;74.48;99874.41;7362773;19;20014;-60
2023/09/24 10:58:00;;;;;;;0.10;0.10;;;;;;;19.73;74.69;99862.13;7370214;19;20555;-61
2023/09/24 11:00:27;;;;;;;0.10;0.10;;;;;;;19.68;74.52;99865.13;7363474;19;20018;-61
2023/09/24 11:02:58;;;;;;;0.10;0.10;;;;;;;19.67;74.33;99862.59;7363714;19;20014;-61
2023/09/24 11:05:25;;;;;;;0.10;0.10;;;;;;;19.63;75.11;99834.63;7363437;19;20490;-61
2023/09/24 11:07:50;;;;;;;0.10;0.10;;;;;;;19.61;75.18;99831.25;7363117;19;20010;-61
2023/09/24 11:10:19;;;;;;;0.10;0.10;;;;;;;19.63;75.18;99842.59;7357940;19;20007;-60
2023/09/24 11:12:49;;;;;;;0.10;0.10;;;;;;;19.58;74.93;99836.75;7355353;19;20077;-60
2023/09/24 11:15:16;;;;;;;0.10;0.10;;;;;;;19.57;75.25;99840.38;7360873;19;21867;-60
2023/09/24 11:17:44;;;;;;;0.10;0.10;;;;;;;19.56;75.62;99836.00;7366464;19;20649;-60
2023/09/24 11:20:09;;;;;;;0.10;0.10;;;;;;;19.54;75.49;99840.56;7353118;19;20031;-60
2023/09/24 11:22:35;;;;;;;0.10;0.10;;;;;;;19.54;75.45;99822.03;7354144;19;20010;-61
2023/09/24 11:25:07;;;;;;;0.10;0.10;;;;;;;19.57;75.66;99824.47;7347631;19;20010;-61
2023/09/24 11:27:49;;;;;;;0.20;0.20;;;;;;;19.58;75.28;99816.41;7351011;19;20010;-61
2023/09/24 11:30:16;;;;;;;0.10;0.10;;;;;;;19.55;75.89;99813.97;7350605;19;20035;-61